sensor_id;sensor_type;location;lat;lon;timestamp;temperature;humidity
71523;HTU21D;59343;51.102;5.884;2023-07-31T00:00:58;18.72;82.78
71523;HTU21D;59343;51.102;5.884;2023-07-31T00:03:24;18.74;82.41
71523;HTU21D;59343;51.102;5.884;2023-07-31T00:05:50;18.71;82.19
71523;HTU21D;59343;51.102;5.884;2023-07-31T00:08:22;18.69;82.33
71523;HTU21D;59343;51.102;5.884;2023-07-31T00:10:52;18.68;82.10
71523;HTU21D;59343;51.102;5.884;2023-07-31T00:13:18;18.70;82.13
71523;HTU21D;59343;51.102;5.884;2023-07-31T00:15:53;18.72;81.91
71523;HTU21D;59343;51.102;5.884;2023-07-31T00:18:31;18.70;81.91
71523;HTU21D;59343;51.102;5.884;2023-07-31T00:21:17;18.71;81.84
71523;HTU21D;59343;51.102;5.884;2023-07-31T00:23:57;18.70;81.88
71523;HTU21D;59343;51.102;5.884;2023-07-31T00:26:29;18.74;81.73
71523;HTU21D;59343;51.102;5.884;2023-07-31T00:28:59;18.74;81.62
71523;HTU21D;59343;51.102;5.884;2023-07-31T00:31:53;18.71;81.65
71523;HTU21D;59343;51.102;5.884;2023-07-31T00:34:38;18.73;81.72
71523;HTU21D;59343;51.102;5.884;2023-07-31T00:37:07;18.74;81.51
71523;HTU21D;59343;51.102;5.884;2023-07-31T00:39:48;18.73;81.56
71523;HTU21D;59343;51.102;5.884;2023-07-31T00:42:50;18.74;81.29
71523;HTU21D;59343;51.102;5.884;2023-07-31T00:45:16;18.69;81.24
71523;HTU21D;59343;51.102;5.884;2023-07-31T00:47:53;18.68;81.13
71523;HTU21D;59343;51.102;5.884;2023-07-31T00:50:19;18.67;81.06
71523;HTU21D;59343;51.102;5.884;2023-07-31T00:52:48;18.66;80.91
71523;HTU21D;59343;51.102;5.884;2023-07-31T00:58:02;18.62;80.80
71523;HTU21D;59343;51.102;5.884;2023-07-31T01:00:32;18.61;80.82
71523;HTU21D;59343;51.102;5.884;2023-07-31T01:02:58;18.58;80.81
71523;HTU21D;59343;51.102;5.884;2023-07-31T01:14:12;18.62;80.74
71523;HTU21D;59343;51.102;5.884;2023-07-31T01:17:41;18.58;80.99
71523;HTU21D;59343;51.102;5.884;2023-07-31T01:20:29;18.61;81.08
71523;HTU21D;59343;51.102;5.884;2023-07-31T01:26:23;18.62;80.98
71523;HTU21D;59343;51.102;5.884;2023-07-31T01:32:08;18.63;81.13
71523;HTU21D;59343;51.102;5.884;2023-07-31T01:34:41;18.63;81.27
71523;HTU21D;59343;51.102;5.884;2023-07-31T01:37:13;18.67;81.11
71523;HTU21D;59343;51.102;5.884;2023-07-31T01:39:39;18.65;81.24
71523;HTU21D;59343;51.102;5.884;2023-07-31T01:42:05;18.66;81.33
71523;HTU21D;59343;51.102;5.884;2023-07-31T01:44:40;18.68;81.31
71523;HTU21D;59343;51.102;5.884;2023-07-31T01:47:09;18.69;81.24
71523;HTU21D;59343;51.102;5.884;2023-07-31T01:49:38;18.69;81.36
71523;HTU21D;59343;51.102;5.884;2023-07-31T01:52:11;18.72;81.39
71523;HTU21D;59343;51.102;5.884;2023-07-31T01:54:42;18.72;81.43
71523;HTU21D;59343;51.102;5.884;2023-07-31T01:57:16;18.72;81.58
71523;HTU21D;59343;51.102;5.884;2023-07-31T02:03:37;18.74;81.67
71523;HTU21D;59343;51.102;5.884;2023-07-31T02:06:09;18.77;81.86
71523;HTU21D;59343;51.102;5.884;2023-07-31T02:08:39;18.77;81.94
71523;HTU21D;59343;51.102;5.884;2023-07-31T02:11:13;18.81;81.91
71523;HTU21D;59343;51.102;5.884;2023-07-31T02:13:43;18.82;81.85
71523;HTU21D;59343;51.102;5.884;2023-07-31T02:16:12;18.82;81.74
71523;HTU21D;59343;51.102;5.884;2023-07-31T02:18:46;18.83;81.88
71523;HTU21D;59343;51.102;5.884;2023-07-31T02:21:16;18.82;81.81
71523;HTU21D;59343;51.102;5.884;2023-07-31T02:23:47;18.83;81.82
71523;HTU21D;59343;51.102;5.884;2023-07-31T02:26:25;18.84;81.78
71523;HTU21D;59343;51.102;5.884;2023-07-31T02:28:57;18.83;81.74
71523;HTU21D;59343;51.102;5.884;2023-07-31T02:31:25;18.83;81.81
71523;HTU21D;59343;51.102;5.884;2023-07-31T02:33:51;18.85;81.49
71523;HTU21D;59343;51.102;5.884;2023-07-31T02:36:17;18.83;81.62
71523;HTU21D;59343;51.102;5.884;2023-07-31T02:38:45;18.85;81.59
71523;HTU21D;59343;51.102;5.884;2023-07-31T02:41:37;18.86;81.53
71523;HTU21D;59343;51.102;5.884;2023-07-31T02:44:20;18.89;81.43
71523;HTU21D;59343;51.102;5.884;2023-07-31T02:46:49;18.92;81.23
71523;HTU21D;59343;51.102;5.884;2023-07-31T02:49:15;18.93;81.09
71523;HTU21D;59343;51.102;5.884;2023-07-31T02:51:44;18.93;81.03
71523;HTU21D;59343;51.102;5.884;2023-07-31T02:54:19;18.94;81.04
71523;HTU21D;59343;51.102;5.884;2023-07-31T02:57:10;18.96;80.91
71523;HTU21D;59343;51.102;5.884;2023-07-31T02:59:40;18.96;80.89
71523;HTU21D;59343;51.102;5.884;2023-07-31T03:02:14;18.95;81.07
71523;HTU21D;59343;51.102;5.884;2023-07-31T03:04:46;18.97;81.00
71523;HTU21D;59343;51.102;5.884;2023-07-31T03:07:17;18.97;81.03
71523;HTU21D;59343;51.102;5.884;2023-07-31T03:09:43;18.97;81.16
71523;HTU21D;59343;51.102;5.884;2023-07-31T03:12:20;18.97;81.15
71523;HTU21D;59343;51.102;5.884;2023-07-31T03:14:53;18.98;81.08
71523;HTU21D;59343;51.102;5.884;2023-07-31T03:17:20;18.96;81.14
71523;HTU21D;59343;51.102;5.884;2023-07-31T03:19:46;18.96;81.20
71523;HTU21D;59343;51.102;5.884;2023-07-31T03:22:17;18.96;81.22
71523;HTU21D;59343;51.102;5.884;2023-07-31T03:24:58;18.96;81.28
71523;HTU21D;59343;51.102;5.884;2023-07-31T03:27:32;18.97;81.28
71523;HTU21D;59343;51.102;5.884;2023-07-31T03:30:22;18.97;81.42
71523;HTU21D;59343;51.102;5.884;2023-07-31T03:32:49;18.97;81.44
71523;HTU21D;59343;51.102;5.884;2023-07-31T03:35:33;18.99;81.39
71523;HTU21D;59343;51.102;5.884;2023-07-31T03:38:08;18.98;81.49
71523;HTU21D;59343;51.102;5.884;2023-07-31T03:40:35;18.99;81.55
71523;HTU21D;59343;51.102;5.884;2023-07-31T03:43:06;18.98;81.63
71523;HTU21D;59343;51.102;5.884;2023-07-31T03:45:34;18.98;81.69
71523;HTU21D;59343;51.102;5.884;2023-07-31T03:48:10;18.98;81.78
71523;HTU21D;59343;51.102;5.884;2023-07-31T03:50:59;19.00;81.66
71523;HTU21D;59343;51.102;5.884;2023-07-31T03:56:56;18.99;81.67
71523;HTU21D;59343;51.102;5.884;2023-07-31T04:00:20;18.98;81.84
71523;HTU21D;59343;51.102;5.884;2023-07-31T04:03:24;18.99;81.84
71523;HTU21D;59343;51.102;5.884;2023-07-31T04:05:53;18.98;81.81
71523;HTU21D;59343;51.102;5.884;2023-07-31T04:08:27;19.01;81.78
71523;HTU21D;59343;51.102;5.884;2023-07-31T04:11:05;18.99;81.67
71523;HTU21D;59343;51.102;5.884;2023-07-31T04:13:34;19.00;81.67
71523;HTU21D;59343;51.102;5.884;2023-07-31T04:16:25;18.99;81.65
71523;HTU21D;59343;51.102;5.884;2023-07-31T04:19:00;18.96;81.68
71523;HTU21D;59343;51.102;5.884;2023-07-31T04:21:31;18.98;81.75
71523;HTU21D;59343;51.102;5.884;2023-07-31T04:24:01;19.01;81.57
71523;HTU21D;59343;51.102;5.884;2023-07-31T04:26:31;19.00;81.59
71523;HTU21D;59343;51.102;5.884;2023-07-31T04:29:17;19.01;81.55
71523;HTU21D;59343;51.102;5.884;2023-07-31T04:32:29;19.05;81.40
71523;HTU21D;59343;51.102;5.884;2023-07-31T04:34:58;19.07;81.14
71523;HTU21D;59343;51.102;5.884;2023-07-31T04:38:47;19.06;81.29
71523;HTU21D;59343;51.102;5.884;2023-07-31T04:41:32;19.10;81.13
71523;HTU21D;59343;51.102;5.884;2023-07-31T04:44:11;19.09;80.99
71523;HTU21D;59343;51.102;5.884;2023-07-31T04:47:01;19.14;80.76
71523;HTU21D;59343;51.102;5.884;2023-07-31T04:50:06;19.13;80.91
71523;HTU21D;59343;51.102;5.884;2023-07-31T04:53:10;19.14;80.74
71523;HTU21D;59343;51.102;5.884;2023-07-31T04:55:39;19.14;80.66
71523;HTU21D;59343;51.102;5.884;2023-07-31T04:58:08;19.17;80.57
71523;HTU21D;59343;51.102;5.884;2023-07-31T05:00:56;19.20;80.40
71523;HTU21D;59343;51.102;5.884;2023-07-31T05:03:22;19.17;80.46
71523;HTU21D;59343;51.102;5.884;2023-07-31T05:05:52;19.18;80.51
71523;HTU21D;59343;51.102;5.884;2023-07-31T05:08:21;19.18;80.39
71523;HTU21D;59343;51.102;5.884;2023-07-31T05:14:07;19.20;80.44
71523;HTU21D;59343;51.102;5.884;2023-07-31T05:17:00;19.14;81.01
71523;HTU21D;59343;51.102;5.884;2023-07-31T05:19:27;19.09;81.54
71523;HTU21D;59343;51.102;5.884;2023-07-31T05:21:55;19.08;81.81
71523;HTU21D;59343;51.102;5.884;2023-07-31T05:24:24;19.02;82.29
71523;HTU21D;59343;51.102;5.884;2023-07-31T05:26:50;19.00;82.47
71523;HTU21D;59343;51.102;5.884;2023-07-31T05:29:17;18.96;82.76
71523;HTU21D;59343;51.102;5.884;2023-07-31T05:31:43;18.91;83.29
71523;HTU21D;59343;51.102;5.884;2023-07-31T05:34:09;18.87;83.60
71523;HTU21D;59343;51.102;5.884;2023-07-31T05:36:36;18.86;83.69
71523;HTU21D;59343;51.102;5.884;2023-07-31T05:39:02;18.82;83.73
71523;HTU21D;59343;51.102;5.884;2023-07-31T05:41:35;18.81;84.10
71523;HTU21D;59343;51.102;5.884;2023-07-31T05:44:01;18.79;84.21
71523;HTU21D;59343;51.102;5.884;2023-07-31T05:46:28;18.78;84.48
71523;HTU21D;59343;51.102;5.884;2023-07-31T05:48:55;18.80;84.48
71523;HTU21D;59343;51.102;5.884;2023-07-31T05:51:21;18.81;84.39
71523;HTU21D;59343;51.102;5.884;2023-07-31T05:53:47;18.79;84.36
71523;HTU21D;59343;51.102;5.884;2023-07-31T05:56:13;18.81;84.33
71523;HTU21D;59343;51.102;5.884;2023-07-31T05:58:39;18.79;84.52
71523;HTU21D;59343;51.102;5.884;2023-07-31T06:01:08;18.83;84.55
71523;HTU21D;59343;51.102;5.884;2023-07-31T06:03:59;18.82;84.50
71523;HTU21D;59343;51.102;5.884;2023-07-31T06:06:26;18.83;84.42
71523;HTU21D;59343;51.102;5.884;2023-07-31T06:08:53;18.84;84.67
71523;HTU21D;59343;51.102;5.884;2023-07-31T06:11:20;18.85;84.49
71523;HTU21D;59343;51.102;5.884;2023-07-31T06:13:50;18.82;84.48
71523;HTU21D;59343;51.102;5.884;2023-07-31T06:16:16;18.83;84.58
71523;HTU21D;59343;51.102;5.884;2023-07-31T06:18:42;18.81;84.55
71523;HTU21D;59343;51.102;5.884;2023-07-31T06:21:12;18.82;84.68
71523;HTU21D;59343;51.102;5.884;2023-07-31T06:23:39;18.84;84.71
71523;HTU21D;59343;51.102;5.884;2023-07-31T06:26:05;18.83;84.78
71523;HTU21D;59343;51.102;5.884;2023-07-31T06:28:32;18.85;84.74
71523;HTU21D;59343;51.102;5.884;2023-07-31T06:30:58;18.86;84.66
71523;HTU21D;59343;51.102;5.884;2023-07-31T06:33:25;18.83;84.62
71523;HTU21D;59343;51.102;5.884;2023-07-31T06:36:00;18.84;84.61
71523;HTU21D;59343;51.102;5.884;2023-07-31T06:38:27;18.84;84.73
71523;HTU21D;59343;51.102;5.884;2023-07-31T06:40:53;18.83;84.57
71523;HTU21D;59343;51.102;5.884;2023-07-31T06:43:20;18.84;84.72
71523;HTU21D;59343;51.102;5.884;2023-07-31T06:45:46;18.81;84.86
71523;HTU21D;59343;51.102;5.884;2023-07-31T06:48:14;18.80;85.00
71523;HTU21D;59343;51.102;5.884;2023-07-31T06:50:40;18.76;85.01
71523;HTU21D;59343;51.102;5.884;2023-07-31T06:53:06;18.73;85.07
71523;HTU21D;59343;51.102;5.884;2023-07-31T06:55:32;18.70;85.24
71523;HTU21D;59343;51.102;5.884;2023-07-31T06:57:58;18.65;85.35
71523;HTU21D;59343;51.102;5.884;2023-07-31T07:00:24;18.63;85.71
71523;HTU21D;59343;51.102;5.884;2023-07-31T07:02:53;18.63;85.74
71523;HTU21D;59343;51.102;5.884;2023-07-31T07:05:19;18.61;85.66
71523;HTU21D;59343;51.102;5.884;2023-07-31T07:07:45;18.59;85.75
71523;HTU21D;59343;51.102;5.884;2023-07-31T07:10:11;18.57;85.96
71523;HTU21D;59343;51.102;5.884;2023-07-31T07:12:37;18.55;85.95
71523;HTU21D;59343;51.102;5.884;2023-07-31T07:15:03;18.56;85.89
71523;HTU21D;59343;51.102;5.884;2023-07-31T07:17:31;18.56;85.96
71523;HTU21D;59343;51.102;5.884;2023-07-31T07:19:57;18.57;86.28
71523;HTU21D;59343;51.102;5.884;2023-07-31T07:22:24;18.61;86.32
71523;HTU21D;59343;51.102;5.884;2023-07-31T07:24:50;18.56;86.33
71523;HTU21D;59343;51.102;5.884;2023-07-31T07:27:16;18.54;86.45
71523;HTU21D;59343;51.102;5.884;2023-07-31T07:29:42;18.47;86.76
71523;HTU21D;59343;51.102;5.884;2023-07-31T07:32:07;18.49;87.00
71523;HTU21D;59343;51.102;5.884;2023-07-31T07:34:34;18.51;86.96
71523;HTU21D;59343;51.102;5.884;2023-07-31T07:37:00;18.51;87.20
71523;HTU21D;59343;51.102;5.884;2023-07-31T07:39:26;18.53;87.21
71523;HTU21D;59343;51.102;5.884;2023-07-31T07:41:54;18.57;87.09
71523;HTU21D;59343;51.102;5.884;2023-07-31T07:44:20;18.62;86.80
71523;HTU21D;59343;51.102;5.884;2023-07-31T07:46:46;18.61;86.23
71523;HTU21D;59343;51.102;5.884;2023-07-31T07:49:12;18.58;86.10
71523;HTU21D;59343;51.102;5.884;2023-07-31T07:51:41;18.61;86.31
71523;HTU21D;59343;51.102;5.884;2023-07-31T07:54:10;18.67;86.39
71523;HTU21D;59343;51.102;5.884;2023-07-31T07:56:40;18.72;86.54
71523;HTU21D;59343;51.102;5.884;2023-07-31T07:59:47;18.77;86.59
71523;HTU21D;59343;51.102;5.884;2023-07-31T08:02:33;18.81;86.13
71523;HTU21D;59343;51.102;5.884;2023-07-31T08:04:59;18.80;86.03
71523;HTU21D;59343;51.102;5.884;2023-07-31T08:07:29;18.79;86.54
71523;HTU21D;59343;51.102;5.884;2023-07-31T08:09:55;18.83;86.15
71523;HTU21D;59343;51.102;5.884;2023-07-31T08:12:20;18.76;86.19
71523;HTU21D;59343;51.102;5.884;2023-07-31T08:14:46;18.78;86.45
71523;HTU21D;59343;51.102;5.884;2023-07-31T08:17:12;18.80;86.32
71523;HTU21D;59343;51.102;5.884;2023-07-31T08:19:38;18.78;85.99
71523;HTU21D;59343;51.102;5.884;2023-07-31T08:22:04;18.72;86.21
71523;HTU21D;59343;51.102;5.884;2023-07-31T08:24:31;18.71;86.42
71523;HTU21D;59343;51.102;5.884;2023-07-31T08:26:57;18.68;86.58
71523;HTU21D;59343;51.102;5.884;2023-07-31T08:29:23;18.66;86.82
71523;HTU21D;59343;51.102;5.884;2023-07-31T08:31:49;18.71;86.84
71523;HTU21D;59343;51.102;5.884;2023-07-31T08:34:15;18.76;86.68
71523;HTU21D;59343;51.102;5.884;2023-07-31T08:36:41;18.72;86.67
71523;HTU21D;59343;51.102;5.884;2023-07-31T08:39:07;18.73;87.11
71523;HTU21D;59343;51.102;5.884;2023-07-31T08:41:38;18.82;86.94
71523;HTU21D;59343;51.102;5.884;2023-07-31T08:44:07;18.85;86.84
71523;HTU21D;59343;51.102;5.884;2023-07-31T08:46:34;18.92;87.14
71523;HTU21D;59343;51.102;5.884;2023-07-31T08:49:04;18.99;87.24
71523;HTU21D;59343;51.102;5.884;2023-07-31T08:51:38;19.02;86.51
71523;HTU21D;59343;51.102;5.884;2023-07-31T08:54:12;18.98;86.70
71523;HTU21D;59343;51.102;5.884;2023-07-31T09:01:17;19.11;86.54
71523;HTU21D;59343;51.102;5.884;2023-07-31T09:07:33;19.27;86.17
71523;HTU21D;59343;51.102;5.884;2023-07-31T09:10:02;19.27;86.22
71523;HTU21D;59343;51.102;5.884;2023-07-31T09:12:31;19.26;85.80
71523;HTU21D;59343;51.102;5.884;2023-07-31T09:14:58;19.23;85.84
71523;HTU21D;59343;51.102;5.884;2023-07-31T09:18:11;19.14;85.88
71523;HTU21D;59343;51.102;5.884;2023-07-31T09:25:23;19.05;85.93
71523;HTU21D;59343;51.102;5.884;2023-07-31T09:29:29;19.01;85.86
71523;HTU21D;59343;51.102;5.884;2023-07-31T09:37:13;19.17;85.51
71523;HTU21D;59343;51.102;5.884;2023-07-31T09:40:34;19.20;85.38
71523;HTU21D;59343;51.102;5.884;2023-07-31T09:47:06;19.35;84.87
71523;HTU21D;59343;51.102;5.884;2023-07-31T09:49:49;19.47;84.74
71523;HTU21D;59343;51.102;5.884;2023-07-31T09:52:26;19.66;84.39
71523;HTU21D;59343;51.102;5.884;2023-07-31T09:54:53;19.79;84.26
71523;HTU21D;59343;51.102;5.884;2023-07-31T09:57:39;19.89;83.68
71523;HTU21D;59343;51.102;5.884;2023-07-31T10:00:30;19.98;83.27
71523;HTU21D;59343;51.102;5.884;2023-07-31T10:03:24;19.98;82.41
71523;HTU21D;59343;51.102;5.884;2023-07-31T10:05:56;19.94;82.52
71523;HTU21D;59343;51.102;5.884;2023-07-31T10:08:32;19.91;82.27
71523;HTU21D;59343;51.102;5.884;2023-07-31T10:11:19;19.89;82.75
71523;HTU21D;59343;51.102;5.884;2023-07-31T10:14:05;19.91;82.65
71523;HTU21D;59343;51.102;5.884;2023-07-31T10:16:49;19.91;82.09
71523;HTU21D;59343;51.102;5.884;2023-07-31T10:19:18;19.90;82.23
71523;HTU21D;59343;51.102;5.884;2023-07-31T10:22:03;19.95;82.06
71523;HTU21D;59343;51.102;5.884;2023-07-31T10:24:31;19.96;81.94
71523;HTU21D;59343;51.102;5.884;2023-07-31T10:27:24;20.00;82.01
71523;HTU21D;59343;51.102;5.884;2023-07-31T10:29:59;20.02;81.54
71523;HTU21D;59343;51.102;5.884;2023-07-31T10:33:07;20.00;81.41
71523;HTU21D;59343;51.102;5.884;2023-07-31T10:36:17;20.06;81.57
71523;HTU21D;59343;51.102;5.884;2023-07-31T10:49:37;20.12;80.95
71523;HTU21D;59343;51.102;5.884;2023-07-31T10:56:11;20.13;80.63
71523;HTU21D;59343;51.102;5.884;2023-07-31T10:59:36;20.15;80.07
71523;HTU21D;59343;51.102;5.884;2023-07-31T11:02:39;20.11;79.99
71523;HTU21D;59343;51.102;5.884;2023-07-31T11:08:21;20.32;79.92
71523;HTU21D;59343;51.102;5.884;2023-07-31T11:14:59;20.84;78.97
71523;HTU21D;59343;51.102;5.884;2023-07-31T11:18:35;20.93;77.84
71523;HTU21D;59343;51.102;5.884;2023-07-31T11:22:23;20.86;77.70
71523;HTU21D;59343;51.102;5.884;2023-07-31T11:24:55;20.77;78.19
71523;HTU21D;59343;51.102;5.884;2023-07-31T11:28:42;20.71;78.62
71523;HTU21D;59343;51.102;5.884;2023-07-31T11:31:11;20.56;79.03
71523;HTU21D;59343;51.102;5.884;2023-07-31T11:33:46;20.45;79.64
71523;HTU21D;59343;51.102;5.884;2023-07-31T11:36:22;20.39;79.89
71523;HTU21D;59343;51.102;5.884;2023-07-31T11:39:12;20.32;80.10
71523;HTU21D;59343;51.102;5.884;2023-07-31T11:41:46;20.30;80.65
71523;HTU21D;59343;51.102;5.884;2023-07-31T11:44:21;20.29;80.94
71523;HTU21D;59343;51.102;5.884;2023-07-31T11:46:57;20.31;81.12
71523;HTU21D;59343;51.102;5.884;2023-07-31T11:50:02;20.32;81.41
71523;HTU21D;59343;51.102;5.884;2023-07-31T11:56:49;20.46;81.46
71523;HTU21D;59343;51.102;5.884;2023-07-31T11:59:27;20.49;81.75
71523;HTU21D;59343;51.102;5.884;2023-07-31T12:02:37;20.59;81.70
71523;HTU21D;59343;51.102;5.884;2023-07-31T12:05:16;20.65;81.06
71523;HTU21D;59343;51.102;5.884;2023-07-31T12:07:51;20.68;81.01
71523;HTU21D;59343;51.102;5.884;2023-07-31T12:10:35;20.68;80.64
71523;HTU21D;59343;51.102;5.884;2023-07-31T12:13:38;20.70;80.63
71523;HTU21D;59343;51.102;5.884;2023-07-31T12:16:34;20.81;80.55
71523;HTU21D;59343;51.102;5.884;2023-07-31T12:19:03;20.81;80.14
71523;HTU21D;59343;51.102;5.884;2023-07-31T12:21:54;20.91;79.78
71523;HTU21D;59343;51.102;5.884;2023-07-31T12:24:41;20.98;79.76
71523;HTU21D;59343;51.102;5.884;2023-07-31T12:27:17;21.05;79.46
71523;HTU21D;59343;51.102;5.884;2023-07-31T12:29:46;21.15;79.28
71523;HTU21D;59343;51.102;5.884;2023-07-31T12:32:26;21.21;78.63
71523;HTU21D;59343;51.102;5.884;2023-07-31T12:35:17;21.24;78.42
71523;HTU21D;59343;51.102;5.884;2023-07-31T12:40:32;21.40;77.83
71523;HTU21D;59343;51.102;5.884;2023-07-31T12:43:24;21.54;77.16
71523;HTU21D;59343;51.102;5.884;2023-07-31T12:45:58;21.67;76.33
71523;HTU21D;59343;51.102;5.884;2023-07-31T12:48:27;21.75;75.70
71523;HTU21D;59343;51.102;5.884;2023-07-31T12:51:02;21.83;75.16
71523;HTU21D;59343;51.102;5.884;2023-07-31T12:53:32;21.94;74.92
71523;HTU21D;59343;51.102;5.884;2023-07-31T12:56:10;22.02;74.92
71523;HTU21D;59343;51.102;5.884;2023-07-31T12:58:58;22.08;73.85
71523;HTU21D;59343;51.102;5.884;2023-07-31T13:01:26;22.11;74.12
71523;HTU21D;59343;51.102;5.884;2023-07-31T13:04:44;22.32;73.86
71523;HTU21D;59343;51.102;5.884;2023-07-31T13:07:56;22.33;73.63
71523;HTU21D;59343;51.102;5.884;2023-07-31T13:10:58;22.37;73.42
71523;HTU21D;59343;51.102;5.884;2023-07-31T13:14:10;22.47;72.96
71523;HTU21D;59343;51.102;5.884;2023-07-31T13:17:02;22.52;72.32
71523;HTU21D;59343;51.102;5.884;2023-07-31T13:19:52;22.47;71.84
71523;HTU21D;59343;51.102;5.884;2023-07-31T13:22:37;22.31;71.97
71523;HTU21D;59343;51.102;5.884;2023-07-31T13:25:16;22.21;72.03
71523;HTU21D;59343;51.102;5.884;2023-07-31T13:27:45;22.12;72.12
71523;HTU21D;59343;51.102;5.884;2023-07-31T13:30:57;21.96;72.15
71523;HTU21D;59343;51.102;5.884;2023-07-31T13:33:47;21.88;72.25
71523;HTU21D;59343;51.102;5.884;2023-07-31T13:36:21;21.79;72.51
71523;HTU21D;59343;51.102;5.884;2023-07-31T13:38:57;21.65;72.90
71523;HTU21D;59343;51.102;5.884;2023-07-31T13:41:26;21.61;73.03
71523;HTU21D;59343;51.102;5.884;2023-07-31T13:46:52;21.55;73.73
71523;HTU21D;59343;51.102;5.884;2023-07-31T13:49:27;21.55;73.52
71523;HTU21D;59343;51.102;5.884;2023-07-31T13:51:54;21.53;73.32
71523;HTU21D;59343;51.102;5.884;2023-07-31T13:54:28;21.50;73.55
71523;HTU21D;59343;51.102;5.884;2023-07-31T13:56:58;21.49;73.59
71523;HTU21D;59343;51.102;5.884;2023-07-31T13:59:45;21.48;73.31
71523;HTU21D;59343;51.102;5.884;2023-07-31T14:02:21;21.50;73.22
71523;HTU21D;59343;51.102;5.884;2023-07-31T14:04:59;21.50;73.36
71523;HTU21D;59343;51.102;5.884;2023-07-31T14:07:31;21.53;73.47
71523;HTU21D;59343;51.102;5.884;2023-07-31T14:10:28;21.58;73.61
71523;HTU21D;59343;51.102;5.884;2023-07-31T14:13:05;21.65;73.49
71523;HTU21D;59343;51.102;5.884;2023-07-31T14:15:49;21.67;73.31
71523;HTU21D;59343;51.102;5.884;2023-07-31T14:19:01;21.70;72.82
71523;HTU21D;59343;51.102;5.884;2023-07-31T14:21:48;21.68;72.87
71523;HTU21D;59343;51.102;5.884;2023-07-31T14:24:29;21.72;72.47
71523;HTU21D;59343;51.102;5.884;2023-07-31T14:27:08;21.70;72.06
71523;HTU21D;59343;51.102;5.884;2023-07-31T14:29:40;21.69;71.88
71523;HTU21D;59343;51.102;5.884;2023-07-31T14:32:17;21.65;72.33
71523;HTU21D;59343;51.102;5.884;2023-07-31T14:35:26;21.65;71.93
71523;HTU21D;59343;51.102;5.884;2023-07-31T14:38:36;21.58;72.20
71523;HTU21D;59343;51.102;5.884;2023-07-31T14:41:03;21.55;72.34
71523;HTU21D;59343;51.102;5.884;2023-07-31T14:43:29;21.53;71.95
71523;HTU21D;59343;51.102;5.884;2023-07-31T14:46:02;21.47;72.23
71523;HTU21D;59343;51.102;5.884;2023-07-31T14:48:31;21.46;72.25
71523;HTU21D;59343;51.102;5.884;2023-07-31T14:51:00;21.39;72.50
71523;HTU21D;59343;51.102;5.884;2023-07-31T14:53:29;21.36;73.13
71523;HTU21D;59343;51.102;5.884;2023-07-31T14:56:04;21.35;73.76
71523;HTU21D;59343;51.102;5.884;2023-07-31T14:58:31;21.33;74.31
71523;HTU21D;59343;51.102;5.884;2023-07-31T15:04:48;21.08;75.99
71523;HTU21D;59343;51.102;5.884;2023-07-31T15:07:26;20.94;77.10
71523;HTU21D;59343;51.102;5.884;2023-07-31T15:09:57;20.85;78.16
71523;HTU21D;59343;51.102;5.884;2023-07-31T15:12:25;20.80;78.97
71523;HTU21D;59343;51.102;5.884;2023-07-31T15:14:52;20.80;78.92
71523;HTU21D;59343;51.102;5.884;2023-07-31T15:17:18;20.69;79.34
71523;HTU21D;59343;51.102;5.884;2023-07-31T15:19:44;20.62;80.01
71523;HTU21D;59343;51.102;5.884;2023-07-31T15:22:10;20.57;80.46
71523;HTU21D;59343;51.102;5.884;2023-07-31T15:24:36;20.53;80.79
71523;HTU21D;59343;51.102;5.884;2023-07-31T15:27:02;20.51;81.34
71523;HTU21D;59343;51.102;5.884;2023-07-31T15:29:30;20.50;81.18
71523;HTU21D;59343;51.102;5.884;2023-07-31T15:32:05;20.48;81.42
71523;HTU21D;59343;51.102;5.884;2023-07-31T15:34:55;20.44;81.86
71523;HTU21D;59343;51.102;5.884;2023-07-31T15:37:34;20.44;82.15
71523;HTU21D;59343;51.102;5.884;2023-07-31T15:40:03;20.42;81.77
71523;HTU21D;59343;51.102;5.884;2023-07-31T15:42:40;20.34;82.15
71523;HTU21D;59343;51.102;5.884;2023-07-31T15:45:26;20.29;82.50
71523;HTU21D;59343;51.102;5.884;2023-07-31T15:47:59;20.24;82.62
71523;HTU21D;59343;51.102;5.884;2023-07-31T15:50:43;20.17;83.01
71523;HTU21D;59343;51.102;5.884;2023-07-31T15:53:36;20.13;83.20
71523;HTU21D;59343;51.102;5.884;2023-07-31T15:56:03;20.11;83.55
71523;HTU21D;59343;51.102;5.884;2023-07-31T16:03:01;20.03;84.18
71523;HTU21D;59343;51.102;5.884;2023-07-31T16:05:30;20.01;84.24
71523;HTU21D;59343;51.102;5.884;2023-07-31T16:12:23;19.90;84.44
71523;HTU21D;59343;51.102;5.884;2023-07-31T16:38:04;19.86;85.78
71523;HTU21D;59343;51.102;5.884;2023-07-31T16:40:36;19.82;86.06
71523;HTU21D;59343;51.102;5.884;2023-07-31T16:56:21;19.65;87.14
71523;HTU21D;59343;51.102;5.884;2023-07-31T16:58:48;19.61;87.31
71523;HTU21D;59343;51.102;5.884;2023-07-31T17:01:17;19.62;87.39
71523;HTU21D;59343;51.102;5.884;2023-07-31T17:03:43;19.58;87.27
71523;HTU21D;59343;51.102;5.884;2023-07-31T17:06:09;19.56;87.33
71523;HTU21D;59343;51.102;5.884;2023-07-31T17:08:37;19.55;87.44
71523;HTU21D;59343;51.102;5.884;2023-07-31T17:11:03;19.54;87.51
71523;HTU21D;59343;51.102;5.884;2023-07-31T17:13:29;19.57;87.71
71523;HTU21D;59343;51.102;5.884;2023-07-31T17:15:55;19.60;87.54
71523;HTU21D;59343;51.102;5.884;2023-07-31T17:18:21;19.59;87.47
71523;HTU21D;59343;51.102;5.884;2023-07-31T17:20:47;19.54;87.54
71523;HTU21D;59343;51.102;5.884;2023-07-31T17:23:13;19.56;87.45
71523;HTU21D;59343;51.102;5.884;2023-07-31T17:25:42;19.52;87.47
71523;HTU21D;59343;51.102;5.884;2023-07-31T17:28:08;19.50;87.50
71523;HTU21D;59343;51.102;5.884;2023-07-31T17:31:05;19.46;87.73
71523;HTU21D;59343;51.102;5.884;2023-07-31T17:34:01;19.48;87.89
71523;HTU21D;59343;51.102;5.884;2023-07-31T17:37:13;19.50;87.73
71523;HTU21D;59343;51.102;5.884;2023-07-31T17:40:08;19.48;87.67
71523;HTU21D;59343;51.102;5.884;2023-07-31T21:16:09;19.45;89.43
71523;HTU21D;59343;51.102;5.884;2023-07-31T21:22:43;19.45;89.39
71523;HTU21D;59343;51.102;5.884;2023-07-31T21:32:58;19.50;89.15
71523;HTU21D;59343;51.102;5.884;2023-07-31T21:35:30;19.47;89.19
71523;HTU21D;59343;51.102;5.884;2023-07-31T21:37:59;19.44;89.43
71523;HTU21D;59343;51.102;5.884;2023-07-31T21:40:26;19.39;89.72
71523;HTU21D;59343;51.102;5.884;2023-07-31T21:42:53;19.40;89.83
71523;HTU21D;59343;51.102;5.884;2023-07-31T21:45:51;19.41;89.93
71523;HTU21D;59343;51.102;5.884;2023-07-31T21:48:50;19.39;90.01
71523;HTU21D;59343;51.102;5.884;2023-07-31T21:51:28;19.39;90.12
71523;HTU21D;59343;51.102;5.884;2023-07-31T21:54:32;19.38;90.15
71523;HTU21D;59343;51.102;5.884;2023-07-31T21:57:11;19.39;90.15
71523;HTU21D;59343;51.102;5.884;2023-07-31T22:00:15;19.39;90.19
71523;HTU21D;59343;51.102;5.884;2023-07-31T22:02:49;19.36;90.43
71523;HTU21D;59343;51.102;5.884;2023-07-31T22:17:21;19.30;90.71
71523;HTU21D;59343;51.102;5.884;2023-07-31T22:20:24;19.29;90.79
71523;HTU21D;59343;51.102;5.884;2023-07-31T22:30:37;19.27;91.36